x

Los Angeles Pier F, Ca - 9410670 (pfxc1) Weather Station

1:54 - Wed 31st Aug 2016 All times are PDT. -7 hours from GMT.

  • Wind
    14mph, 16mph gusts
  • Ar Temp 76°f
  • Sea Pressure 1009.7mb
  • Los Angeles Pier F, Ca - 9410670
  • Los Angeles Pier F, Ca - 9410670

More Historic Weather Station data

Upgrade to MSW Pro to gain access to the past 30 days of data for over 8000 Wavebouys and Weather Stations around the globe.

Join Pro

Comparision Forecast

View Surf forecast
   
Qua 08/31 1:54 14 16 mph 1009.7mb 76f
1:48 14 15 mph 1009.8mb 75f
1:42 13 15 mph 1009.9mb 75f
1:36 14 15 mph 1010mb 75f
1:30 14 16 mph 1010.1mb 75f
1:24 14 15 mph 1010.1mb 75f
1:18 14 16 mph 1010.2mb 75f
1:12 14 15 mph 1010.2mb 75f
1:06 14 15 mph 1010.4mb 74f
1:00 14 16 mph 1010.5mb 74f
12:54 13 15 mph 1010.6mb 74f
12:48 14 15 mph 1010.7mb 73f
12:42 14 15 mph 1010.7mb 72f
12:36 13 14 mph 1010.9mb 71f
12:30 13 14 mph 1010.8mb 70f
12:24 11 13 mph 1010.8mb 71f
12:18 10 11 mph 1011mb 71f
12:12 10 11 mph 1011mb 71f
12:06 8 10 mph 1011mb 70f
12:00 8 9 mph 1011mb 70f
11:54 9 10 mph 1011.2mb 70f
11:48 8 9 mph 1011.4mb 70f
11:42 8 9 mph 1011.1mb 69f
11:36 7 8 mph 1011.1mb 69f
11:30 7 8 mph 1011.3mb 69f
11:24 6 8 mph 1011.4mb 68f
11:18 6 7 mph 1011.4mb 68f
11:12 6 7 mph 1011.5mb 68f
11:06 7 8 mph 1011.4mb 68f
11:00 8 10 mph 1011.5mb 68f
10:54 9 10 mph 1011.5mb 68f
10:48 9 10 mph 1011.3mb 68f
10:42 8 9 mph 1011.3mb 68f
10:36 7 8 mph 1011.2mb 68f
10:30 7 8 mph 1011.2mb 67f
10:24 7 8 mph 1011.1mb 67f
10:18 6 7 mph 1011.1mb 68f
10:12 6 7 mph 1011.1mb 67f
10:06 7
mph
1011mb 67f
10:00 7 8 mph 1011.1mb 67f
9:54 6 7 mph 1010.9mb 67f
9:48 6 7 mph 1010.9mb 67f
9:42 7 9 mph 1011.1mb 67f
9:36 7 9 mph 1010.9mb 67f
9:30 5 6 mph 1010.7mb 67f
9:24 6
mph
1010.6mb 67f
9:18 5 6 mph 1010.7mb 67f
9:12 3 5 mph 1010.8mb 67f
9:06 6
mph
1010.7mb 67f
9:00 7
mph
1010.7mb 67f
8:54 6 7 mph 1010.5mb 67f
8:48 3 5 mph 1010.5mb 67f
8:42 3 5 mph 1010.4mb 67f
8:36 3
mph
1010.4mb 67f
8:30 2 5 mph 1010.4mb 67f
8:24 2
mph
1010.4mb 67f
8:18 2 3 mph 1010.4mb 67f
8:12 2 3 mph 1010.3mb 67f
8:06 3 5 mph 1010.3mb 67f
8:00 2 3 mph 1010.3mb 67f
7:54 2 3 mph 1010.2mb 67f
7:48 2 3 mph 1010.1mb 67f
7:42 2 3 mph 1010.1mb 67f
7:36 2 3 mph 1010.1mb 67f
7:30 1 2 mph 1010mb 67f
7:24 1 2 mph 1010mb 67f
7:18 1 2 mph 1009.9mb 67f
7:12 2 3 mph 1009.9mb 67f
7:06 2 3 mph 1009.8mb 67f
7:00 3 5 mph 1009.7mb 67f
6:54 2 5 mph 1009.6mb 67f
6:48 2 6 mph 1009.6mb 67f
6:42 3 5 mph 1009.6mb 68f
6:36 2 3 mph 1009.6mb 68f
6:30 3 5 mph 1009.6mb 68f
6:24 5 6 mph 1009.5mb 68f
6:18 2 3 mph 1009.3mb 68f
6:12 2 5 mph 1009.3mb 68f
6:06 3 6 mph 1009.3mb 68f
6:00 5 7 mph 1009.3mb 68f
5:54 3 6 mph 1009.2mb 68f
5:48 2 3 mph 1009.3mb 68f
5:42 1 3 mph 1009.3mb 68f
5:36 3 5 mph 1009.3mb 68f
5:30 1 5 mph 1009.3mb 68f
5:24 2 5 mph 1009.3mb 68f
5:18 3 5 mph 1009.2mb 69f
5:12 2 6 mph 1009.1mb 69f
5:06 3 5 mph 1009.1mb 69f
5:00 2 3 mph 1009.1mb 69f
4:54 2 3 mph 1009.1mb 69f
4:48 2 6 mph 1009.1mb 69f
4:42 2 6 mph 1009.1mb 69f
4:36 3 6 mph 1009.1mb 69f
4:30 6 7 mph 1009.2mb 69f
4:24 5 7 mph 1009.2mb 69f
4:18 5 6 mph 1009.3mb 69f
4:12 5 7 mph 1009.3mb 69f
4:06 6 7 mph 1009.3mb 69f
4:00 5 8 mph 1009.3mb 69f
3:54 6 8 mph 1009.3mb 69f
3:48 7 9 mph 1009.2mb 69f
3:42 7 9 mph 1009.2mb 69f
3:36 8 9 mph 1009.3mb 69f
3:30 8 10 mph 1009.3mb 69f
3:24 8 10 mph 1009.3mb 69f
3:18 8 11 mph 1009.3mb 69f
3:12 8 10 mph 1009.2mb 69f
3:06 9 11 mph 1009.2mb 69f
3:00 8 10 mph 1009.2mb 69f
2:54 8 9 mph 1009.2mb 69f
2:48 7 8 mph 1009.2mb 69f
2:42 7 8 mph 1009.2mb 69f
2:36 7 9 mph 1009.3mb 69f
2:30 6 8 mph 1009.3mb 69f
2:24 6 7 mph 1009.2mb 69f
2:18 6 8 mph 1009.2mb 69f
2:12 6 7 mph 1009.3mb 69f
2:06 6 7 mph 1009.3mb 69f
2:00 6 8 mph 1009.3mb 69f
1:54 6 7 mph 1009.3mb 69f
1:48 6 8 mph 1009.3mb 69f
1:42 6 8 mph 1009.5mb 69f
1:36 6 7 mph 1009.5mb 69f
1:30 6 8 mph 1009.4mb 69f
1:24 6 8 mph 1009.5mb 69f
1:18 6 8 mph 1009.6mb 69f
1:12 6 8 mph 1009.5mb 69f
1:06 6 7 mph 1009.5mb 69f
1:00 6 8 mph 1009.6mb 70f
12:54 7 9 mph 1009.6mb 70f
12:48 7 8 mph 1009.6mb 70f
12:42 8 9 mph 1009.5mb 70f
12:36 7 9 mph 1009.5mb 70f
12:30 6 7 mph 1009.6mb 70f
12:24 6 8 mph 1009.6mb 70f
12:18 6 7 mph 1009.6mb 70f
12:12 6 8 mph 1009.6mb 70f
12:06 6 8 mph 1009.6mb 70f
12:00 6 7 mph 1009.6mb 70f
Ter 08/30 11:54 6 7 mph 1009.6mb 70f
11:48 6 8 mph 1009.6mb -
11:42 5 6 mph 1009.6mb -
11:36 5 7 mph 1009.6mb -
11:30 5 6 mph 1009.6mb 70f
11:24 6 7 mph 1009.6mb 70f
11:18 6 7 mph 1009.6mb 70f
11:12 6 8 mph 1009.6mb 69f
11:06 6
mph
1009.5mb 69f
11:00 6 7 mph 1009.5mb 69f
10:54 6 7 mph 1009.6mb 69f
10:48 6
mph
- -
10:42 5 6 mph - -
10:36 5 6 mph - -
10:30 5
mph
1009.6mb 69f
10:24 3 5 mph 1009.5mb 69f
10:18 5 6 mph 1009.6mb 69f
10:12 5 6 mph 1009.5mb 69f
10:06 5 6 mph 1009.5mb 69f
10:00 5 6 mph 1009.6mb 69f
9:54 5
mph
1009.6mb 68f
9:48 5
mph
1009.6mb 68f
9:42 5 6 mph 1009.5mb 68f
9:36 5 6 mph 1009.6mb 68f
9:30 6 7 mph 1009.4mb 68f
9:24 6 7 mph 1009.4mb 68f
9:18 6 7 mph 1009.3mb 68f
9:12 7
mph
1009.2mb 68f
9:06 7 8 mph 1009.1mb 68f
9:00 8
mph
1009.1mb 68f
8:54 8
mph
1009mb 68f
8:48 8 9 mph 1008.9mb 68f
8:42 8 9 mph 1008.8mb 68f
8:36 9 10 mph 1008.7mb 68f
8:30 10 11 mph 1008.5mb 69f
8:24 11
mph
1008.5mb 69f
8:18 11 13 mph 1008.3mb 69f
8:12 11 14 mph 1008.2mb 69f
8:06 9 13 mph 1008.1mb 69f
8:00 5 6 mph 1008.1mb 71f
7:54 5 6 mph 1008mb 71f
7:48 3 5 mph 1008mb 71f
7:42 1 2 mph 1007.9mb 72f
7:36 2 6 mph 1007.8mb 73f
7:30 5 6 mph - 74f
7:24 5 6 mph - 75f
7:18 1 2 mph 1007.6mb 74f
7:12 1 2 mph 1007.5mb 73f
7:06  -  2 mph 1007.4mb 73f
7:00  -  mph 1007.3mb 74f
6:54  -  mph 1007.2mb 74f
6:48 1 2 mph - 74f
6:42 1 3 mph - 74f
6:36  -  2 mph - 74f
6:30  -  mph - 74f
6:24  -  2 mph - 74f
6:18  -  mph 1007.3mb 74f
6:12  -  mph 1007.4mb 74f
6:06  -  mph 1007.4mb 74f
6:00  -  mph 1007.4mb 74f
5:54  -  mph 1007.4mb 75f
5:48  -  mph - 74f
5:42  -  mph - 74f
5:36  -  mph - 73f
5:30 15 16 mph - 73f
5:24 16
mph
- 73f
5:18  -  mph 1007.6mb 73f
5:12  -  mph 1007.6mb 73f
5:00  -  mph 1007.6mb 73f
4:54  -  mph 1007.6mb 74f
4:48  -  mph 1007.6mb -
4:42  -  mph 1007.7mb -
4:36  -  mph 1007.6mb -
4:30 14 15 mph - 76f
4:24 14 16 mph - 76f
4:18  -  mph 1007.5mb 75f
4:12  -  mph 1007.5mb 76f
4:06  -  mph 1007.7mb 77f
4:00  -  mph 1007.7mb 77f
3:54  -  mph 1007.7mb 76f
3:48  -  mph 1007.8mb -
3:42  -  mph 1007.9mb -
3:36  -  mph 1008mb -
3:30 15
mph
- 74f
3:24 15
mph
- 74f
3:18  -  mph 1008.2mb 73f
3:12  -  mph 1008.2mb 72f
3:06  -  mph 1008.2mb 72f
3:00 15 17 mph 1008.3mb 72f
2:54 15 18 mph 1008.3mb 71f
2:48 16 17 mph 1008.3mb 71f
2:42 16 17 mph 1008.3mb 71f
2:36 16 17 mph 1008.2mb 72f
2:30 16 17 mph 1008.4mb 73f
2:24 16 17 mph 1008.5mb 74f
2:18 16 17 mph 1008.6mb 74f
2:12 14 16 mph 1008.8mb 73f
2:06 14 15 mph 1008.9mb 73f
2:00 14 15 mph 1009mb 73f
1:54 13 14 mph 1009.1mb 73f
1:48 13 14 mph 1009.2mb 72f
1:42 11 13 mph 1009.2mb 71f
1:36 13 14 mph 1009.4mb 72f
1:30 13 14 mph 1009.5mb 71f
1:24 11 13 mph 1009.5mb 70f
1:18 11 13 mph 1009.5mb 70f
1:12 10 13 mph 1009.6mb 71f
1:06 10 11 mph 1009.8mb 72f
1:00 10 11 mph 1009.8mb 71f
12:54 10 11 mph 1009.9mb 71f
12:48 9 10 mph 1010mb 70f
12:42 9 10 mph 1009.9mb 69f
12:36 8 9 mph 1010mb 69f
12:30 9
mph
1010mb 69f
12:24 8 9 mph 1010.1mb 69f
12:18 8 9 mph 1010.2mb 69f
12:12 8 9 mph 1010.2mb 69f
12:06 8 9 mph 1010.3mb 70f
12:00 7 8 mph 1010.4mb 69f
11:54 8
mph
1010.4mb 69f
11:48 7 8 mph 1010.4mb 70f
11:42 7 8 mph 1010.5mb 71f
11:36 8
mph
1010.5mb 71f
11:30 7 8 mph 1010.6mb 71f
11:24 7 8 mph 1010.7mb 71f
11:18 7 8 mph 1010.7mb 71f
11:12 7
mph
1010.7mb 71f
11:06 6 7 mph 1010.8mb 70f
11:00 6
mph
1010.8mb 71f
10:54 6
mph
1010.9mb 71f
10:48 6 7 mph 1011mb 71f
10:42 7
mph
1011mb 70f
10:36 7
mph
1011mb 70f
10:30 7
mph
1011.1mb 70f
10:24 7 8 mph 1011mb 70f
10:18 6 7 mph 1011mb 71f
10:12 5 6 mph 1011.2mb 69f
10:06 5 6 mph 1011mb 69f
10:00 6 7 mph 1011.2mb 70f
9:54 7
mph
1011.3mb 70f
9:48 6 7 mph 1011.3mb 70f
9:42 5 6 mph 1011.3mb 70f
9:36 3 6 mph 1011.3mb 70f
9:30 6 7 mph 1011.4mb 69f
9:24 6 7 mph 1011.4mb 69f
9:18 6 7 mph 1011.1mb 68f
9:12 6 7 mph 1011.2mb 68f
9:06 5 6 mph 1011.3mb 68f
9:00 5
mph
1011.4mb 69f
8:54 5 6 mph 1011.4mb 69f
8:48 5 6 mph 1011.2mb 69f
8:42 3 6 mph 1011.4mb 70f
8:36 3 6 mph 1011.4mb 69f
8:30 3 5 mph 1011.3mb 69f
8:24 5 6 mph 1011.4mb 69f
8:12 8 9 mph 1011.2mb 68f
8:06 6 9 mph 1011.2mb 68f
8:00 6 8 mph 1011.1mb 68f
7:54 7 9 mph 1011mb 68f
7:42 7 9 mph 1010.9mb 68f
7:36 6 8 mph 1010.9mb 68f
7:30 7 9 mph 1011mb 68f
7:24 7 8 mph 1010.9mb 68f
7:18 7 8 mph 1010.9mb 68f
7:12 6 8 mph 1010.9mb 68f
7:06 7 8 mph 1010.8mb 68f
7:00 6 7 mph 1010.8mb 68f
6:54 6 8 mph 1010.8mb 68f
6:48 6 8 mph 1010.7mb 68f
6:42 7 9 mph 1010.8mb 68f
6:36 7 8 mph 1010.8mb 68f
6:30 8 10 mph 1010.8mb 68f
6:24 8 9 mph 1010.8mb 68f
6:18 6 8 mph 1010.8mb 68f
6:12 8 10 mph 1010.7mb 68f
6:06 8 10 mph 1010.7mb 68f
6:00 8 10 mph 1010.7mb 68f
5:54 8 9 mph 1010.7mb 68f
5:48 8 10 mph 1010.7mb 68f
5:42 8 10 mph 1010.7mb 68f
5:36 7 9 mph 1010.7mb 68f
5:30 7 10 mph 1010.6mb 68f
5:24 9 11 mph 1010.5mb 68f
5:18 10 11 mph 1010.5mb 68f
5:12 10 13 mph 1010.5mb 68f
5:06 10 14 mph 1010.5mb 68f
5:00 9 11 mph 1010.5mb 68f
4:54 9 11 mph 1010.5mb 68f
4:42 8 10 mph 1010.5mb 68f
4:36 8 10 mph 1010.5mb 68f
4:30 9 11 mph 1010.5mb 68f
4:24 8 10 mph 1010.6mb 68f
4:18 8 11 mph 1010.6mb 68f
4:12 8 10 mph 1010.6mb 68f
4:06 8 9 mph 1010.6mb 68f
4:00 8 9 mph 1010.4mb 68f
3:54 8 10 mph 1010.4mb 68f
3:48 9 11 mph 1010.4mb 68f
3:42 8 10 mph 1010.4mb 68f
3:36 9 11 mph 1010.4mb 68f
3:30 9 13 mph 1010.4mb 68f
3:24 9 11 mph 1010.4mb 68f
3:18 9 11 mph 1010.5mb 68f
3:12 7 9 mph 1010.5mb 68f
3:06 7 8 mph 1010.5mb 68f
3:00 6 7 mph 1010.5mb 68f
2:54 6
mph
1010.5mb 68f
2:48 6
mph
1010.5mb 68f
2:42 6
mph
1010.5mb 68f
2:36 6
mph
1010.5mb 68f
2:30 5 6 mph 1010.5mb 68f
2:24 2 3 mph 1010.5mb 68f
2:18 2 3 mph 1010.5mb 68f
2:12 2 3 mph 1010.5mb 68f
2:06 2 3 mph 1010.6mb 68f
2:00 2 3 mph 1010.6mb 68f
1:54 3 5 mph 1010.7mb 68f
1:48 3 5 mph 1010.7mb 69f
1:42 3 5 mph 1010.7mb 69f
1:36 5 6 mph 1010.7mb 69f
1:30 5
mph
1010.7mb 69f
1:24 3 5 mph 1010.7mb 69f
1:18 3 5 mph 1010.8mb 69f
1:12 3 5 mph 1010.9mb 69f
1:06 3 5 mph 1010.9mb 69f
1:00 3 5 mph 1010.9mb 69f
12:54 3
mph
1010.9mb 69f
12:48 3
mph
1010.9mb 69f
12:42 3 5 mph 1010.9mb 69f
12:36 3 5 mph 1010.9mb 69f
12:30 3 6 mph 1010.9mb 69f
12:24 3 5 mph 1010.9mb 69f
12:18 5 6 mph 1011mb 69f
12:12 5 6 mph 1011mb 69f
12:06 6
mph
1011mb 69f
12:00 6
mph
1011mb 69f
Seg 08/29 11:54 5 6 mph 1011mb 69f
11:48 5 6 mph 1011mb -
11:42 5 6 mph 1011mb -
11:36 5 6 mph 1011mb -
11:30 5 6 mph 1011.1mb 68f
11:24 3 5 mph 1011.1mb 68f
11:18 3 5 mph 1011.1mb 68f
11:12 3 6 mph 1011.1mb 68f
11:06 3 5 mph 1011mb 68f
11:00 6
mph
1011mb 68f
10:54 6
mph
1011mb 68f
10:48 6
mph
1011mb -
10:42 5 6 mph 1011mb -
10:36 5
mph
1011mb -
10:30 3 5 mph 1011mb 68f
10:24 3
mph
1010.9mb 68f
10:18 3 5 mph 1010.8mb 68f
10:12 5 6 mph 1010.7mb 68f
10:06 3 6 mph 1010.7mb 68f
10:00 6
mph
1010.7mb 68f
9:54 6 7 mph 1010.7mb 68f
9:42 5 6 mph 1010.8mb 68f
9:36 5 7 mph 1010.7mb 68f
9:30 6 7 mph 1010.7mb 68f
9:24 7 8 mph 1010.6mb 68f
9:18 8 9 mph 1010.6mb 68f
9:12 7 9 mph 1010.6mb 68f
9:06 8 10 mph 1010.5mb 68f
9:00 7 8 mph 1010.5mb 69f
8:54 6 8 mph 1010.5mb 69f
8:48 6 7 mph 1010.4mb 69f
8:42 6
mph
1010.4mb 69f
8:36 6 7 mph 1010.4mb 69f
8:30 6 7 mph 1010.3mb 69f
8:24 6 7 mph 1010.2mb 69f
8:18 6
mph
1010.1mb 69f
8:12 5 6 mph 1010.1mb 69f
8:06 5
mph
1010.1mb 69f
8:00 3
mph
1010.1mb 69f
7:54 2 3 mph 1009.9mb 68f
7:48 3
mph
- 68f
7:42 5 6 mph - 68f
7:36 6 7 mph - 68f
7:30 7 8 mph - 69f
7:24 8
mph
- 69f
7:18 8 9 mph 1009.6mb 70f
7:12 7 10 mph 1009.4mb 72f
7:06 6 8 mph 1009.4mb 73f
7:00  -  mph 1009.3mb 75f
6:54  -  mph 1009.3mb 77f
6:48 8 9 mph - 77f
6:42 8 10 mph - 76f
6:36 9 10 mph - 76f
6:30 10 13 mph - 76f
6:24 10 11 mph - 77f
6:18 11 14 mph - 77f
6:12 11 14 mph - 77f
6:06 11 14 mph - 78f
6:00 10 13 mph 1009.2mb 78f
5:54 10 13 mph 1009.3mb 78f
5:48 10 11 mph - -
5:42 9 11 mph - -
5:36 10 13 mph - -
5:30 11 14 mph - 78f
5:24 10 14 mph - 79f
5:18 13 14 mph 1009.3mb 79f
5:12 14 15 mph 1009.3mb 79f
5:06 14 16 mph 1009.2mb 80f
5:00  -  mph 1009.3mb 81f
4:54  -  mph 1009.5mb 81f
4:48  -  mph 1009.4mb -
4:42  -  mph 1009.6mb -
4:36  -  mph 1009.6mb -
4:30 9 10 mph 1009.6mb 76f
4:24 10 11 mph 1009.6mb 76f
4:18  -  mph 1009.6mb 75f
4:12  -  mph 1009.7mb 76f
4:06  -  mph 1009.6mb 76f
4:00 9 11 mph - 77f
3:54 10 11 mph - 77f
3:48 11 13 mph - 77f
3:42 10 13 mph - 78f
3:36 9 11 mph - 79f
3:30 6 9 mph - 83f
3:24 6 7 mph - 84f
3:18 8 10 mph 1010.4mb 84f
3:12 8 11 mph 1010.5mb 83f
3:06 8 10 mph 1010.6mb 80f
3:00  -  mph - 78f
2:54  -  mph - 77f
2:48 11 14 mph 1010.8mb 77f
2:42 11 14 mph 1010.9mb 77f
2:36 13 14 mph 1011mb 76f
2:30 13
mph
1011.1mb 77f
2:24 13 14 mph 1011.2mb 77f
2:18 14 15 mph 1011.2mb 76f
2:12 14 15 mph 1011.4mb 76f
2:06 14
mph
1011.5mb 76f
2:00 14
mph
1011.7mb 77f
1:54 14 15 mph 1011.7mb 76f
1:48 11 14 mph 1011.8mb 76f
1:42 13 14 mph 1011.9mb 76f
1:36 13 15 mph 1011.9mb 76f
1:30 13 14 mph 1012mb 76f
1:24 8 13 mph 1012mb 75f
1:18 13 14 mph 1012.1mb 76f
1:12 13 14 mph 1012.2mb 76f
1:06 13 14 mph 1012.3mb 76f
1:00 13 14 mph 1012.4mb 75f
12:54 13 15 mph 1012.6mb 74f
12:48 14 15 mph 1012.6mb 74f
12:42 14 15 mph 1012.7mb 74f
12:36 14 15 mph 1012.8mb 73f
12:30 14 15 mph 1013.1mb 73f
12:24 14 15 mph 1013.2mb 72f
12:18 13 14 mph 1013.3mb 71f
12:12 11 13 mph 1013.2mb 70f
12:06 10 13 mph 1013.4mb 70f
12:00 8 10 mph 1013.5mb 69f
11:54 7 9 mph 1013.4mb 70f
11:48 7 8 mph 1013.8mb 71f
11:42 7 8 mph 1013.6mb 70f
11:36 7 8 mph 1013.6mb 71f
11:30 7
mph
1013.7mb 71f
11:24 7 8 mph 1013.6mb 71f
11:18 7 8 mph 1013.7mb 71f
11:12 7 8 mph 1013.7mb 71f
11:06 7 8 mph 1013.8mb 71f
11:00 7
mph
1014mb 71f
10:54 8 9 mph 1014mb 70f
10:48 8
mph
1014mb 70f
10:42 8
mph
1014.1mb 70f
10:36 7 8 mph 1014.1mb 71f
10:30 7 8 mph 1014.1mb 71f
10:24 7 8 mph 1014.1mb 71f
10:18 7
mph
1014.1mb 70f
10:12 7 8 mph 1014.1mb 71f
10:06 7 8 mph 1014.1mb 71f
10:00 7
mph
1014.1mb 71f
9:54 6 7 mph 1014.2mb 71f
9:48 6
mph
1014.2mb 70f
9:42 6
mph
1014.2mb 71f
9:36 5 6 mph 1014.2mb 71f
9:30 5
mph
1014.3mb 70f
9:24 5
mph
1014.3mb 70f
9:18 5
mph
1014.3mb 70f
9:12 5
mph
1014.4mb 70f
9:06 5 6 mph 1014.4mb 70f
9:00 6
mph
1014.4mb 69f
8:54 6 7 mph 1014.5mb 69f
8:48 8
mph
1014.3mb 69f
8:42 7 8 mph 1014.2mb 69f
8:36 7
mph
1014.3mb 68f
8:30 7 8 mph 1014.3mb 68f
8:24 6 7 mph 1014.2mb 68f
8:18 5 6 mph 1014.1mb 68f
8:12 5 6 mph 1014.1mb 68f
8:06 2 5 mph 1014mb 70f
8:00  -  1 mph - 70f
7:54  -  1 mph - 70f
7:48  -  1 mph - 69f
7:42  -  1 mph - 69f
7:36  -  1 mph - 69f
7:30  -  1 mph - 69f
7:24  -  2 mph 1014.2mb 69f
7:18 2 3 mph 1014.1mb 68f
7:12 3 5 mph 1014.1mb 68f
7:06 2 5 mph 1014mb 68f
7:00 1 2 mph 1014mb 67f
6:54 1
mph
1014mb 66f
6:48  -  1 mph 1013.9mb 66f
6:42  -  1 mph 1013.9mb 66f
6:36  -  1 mph 1013.8mb 65f
6:30  -  1 mph 1013.7mb 66f
6:24  -  1 mph 1013.7mb 66f
6:18 2
mph
1013.6mb 66f
6:12  -  1 mph 1013.5mb 65f
6:06  -  1 mph 1013.5mb 66f
6:00  -  1 mph 1013.5mb 65f
5:54  -  1 mph 1013.4mb 65f
5:48 2
mph
1013.4mb 66f
5:42 2
mph
1013.4mb 66f
5:36 2
mph
1013.4mb 66f
5:30 2
mph
1013.2mb 66f
5:24 2
mph
1013.2mb 66f
5:18 2
mph
1013.2mb 66f
5:12 1
mph
1013.2mb 66f
5:06 1
mph
1013.1mb 66f
5:00  -  1 mph 1013.1mb 66f
4:54  -  mph 1013.1mb 66f
4:48  -  mph 1013.2mb 66f
4:42  -  mph 1013.2mb 66f
4:36  -  1 mph 1013.2mb 66f
4:30  -  1 mph 1013.2mb 66f
4:24 1 2 mph 1013.3mb 67f
4:18  -  1 mph 1013.4mb 67f
4:12 1 3 mph 1013.4mb 68f
4:06 3
mph
1013.4mb 67f
4:00 3
mph
1013.5mb 67f
3:54 2 5 mph 1013.5mb 67f
3:48 3 5 mph 1013.5mb 67f
3:42 2 3 mph 1013.6mb 67f
3:36 1 3 mph 1013.7mb 68f
3:30 1 3 mph 1013.8mb 68f
3:24 1 3 mph 1013.9mb 67f
3:18 1 3 mph 1013.9mb 67f
3:12 2 3 mph 1013.9mb 67f
3:06  -  2 mph 1013.9mb 66f
3:00  -  2 mph 1013.9mb 66f
2:54  -  2 mph 1013.9mb 67f
2:48  -  1 mph 1013.9mb 67f
2:42  -  1 mph 1014mb 67f
2:36  -  1 mph 1013.9mb 66f
2:30  -  mph 1014mb 66f
2:24  -  mph 1014mb 66f
2:18  -  mph 1013.9mb 66f
2:12  -  1 mph 1013.9mb 66f
2:06  -  1 mph 1014mb 66f
2:00  -  mph 1014mb 66f
1:54  -  mph 1013.9mb 66f
1:48  -  1 mph 1013.9mb 67f
1:42  -  1 mph 1014mb 67f
1:36  -  1 mph 1014mb 67f
1:30  -  2 mph 1014.1mb 67f
1:24 2 3 mph 1014.1mb 67f
1:18 3 5 mph 1014.2mb 67f
1:12 5
mph
1014.2mb 67f
1:06 5
mph
1014.2mb 67f
1:00 3 5 mph 1014.1mb 68f
12:54 5 6 mph 1014.1mb 69f
12:48 3 6 mph 1014.2mb 69f
12:42 6 8 mph 1014.2mb 69f
12:36 6 8 mph 1014.2mb 69f
12:30 6 7 mph 1014.2mb 69f
12:24 6 7 mph 1014.2mb 69f
12:18 6 7 mph 1014.2mb 69f
12:06  -  1 mph 1014.3mb 67f
12:00  -  mph 1014.3mb 67f
Dom 08/28 11:54  -  1 mph 1014.4mb 67f
11:48  -  1 mph 1014.4mb 67f
11:42  -  1 mph 1014.4mb 67f
11:36  -  1 mph 1014.5mb 67f
11:30 1 2 mph 1014.5mb 67f
11:24 1
mph
1014.5mb 67f
11:18 2
mph
1014.5mb 67f
11:12 1 2 mph 1014.4mb 67f
11:06 3 5 mph 1014.4mb 68f
11:00 3 5 mph 1014.4mb 68f
10:48 3
mph
1014.4mb -
10:42 3 5 mph 1014.4mb -
10:36 2 3 mph 1014.3mb -
10:30 1 2 mph 1014.3mb 68f
10:24 1
mph
1014.2mb 68f
10:18 1
mph
1014.2mb 67f
10:12  -  1 mph 1014.2mb 67f
10:06  -  mph 1014.2mb 67f
10:00 1 2 mph 1014.2mb 67f
9:54 1 2 mph 1014.2mb 67f
9:48 1 2 mph 1014.1mb 67f
9:42 2
mph
1014mb 67f
9:36 2 3 mph 1013.9mb 68f
9:30 3 5 mph 1013.9mb 68f
9:24 3 5 mph 1013.9mb 68f
9:18 5 6 mph 1013.9mb 68f
9:12 6
mph
1013.8mb 68f
9:06 6 7 mph 1013.7mb 68f
9:00 6
mph
1013.7mb 68f
8:54 6 7 mph 1013.7mb 68f
8:48 6 7 mph 1013.7mb 69f
8:42 6
mph
1013.7mb 69f
8:36 5 6 mph 1013.7mb 69f
8:30 5
mph
1013.5mb 68f
8:24 5
mph
1013.5mb 68f
8:12 5
mph
1013.3mb 68f
8:06 3 5 mph 1013.2mb 68f
8:00 5
mph
1013.1mb 68f
7:54 3 5 mph 1013.1mb 69f
7:48 3 5 mph 1013mb 69f
7:42 3 5 mph 1012.9mb 69f
7:36 5 6 mph 1012.8mb 69f
7:30 3 6 mph 1012.8mb 70f
7:24 5 7 mph 1012.8mb 73f
7:18 7 9 mph 1012.7mb 73f
7:12 9 11 mph 1012.6mb 74f
7:06 9 13 mph 1012.6mb 73f
7:00 9 11 mph 1012.5mb 74f
6:54 10 11 mph 1012.3mb 74f
6:48 9 10 mph 1012.3mb 75f
6:42 9 11 mph 1012.3mb 75f
6:36 9 13 mph 1012.3mb 75f
6:30 9 11 mph 1012.3mb 75f
6:24 9 11 mph 1012.3mb 76f
6:18 11 13 mph 1012.3mb 76f
6:12 10 13 mph 1012.3mb 76f
6:06 10 13 mph 1012.3mb 77f
6:00  -  mph 1012.3mb 77f
5:54  -  mph 1012.3mb 77f
5:48 10 11 mph 1012.3mb 78f
5:42 9 11 mph 1012.3mb 79f
5:36 10 13 mph 1012.3mb 78f
5:30 8 11 mph 1012.4mb 79f
5:24 9 11 mph 1012.3mb 79f
5:18  -  mph 1012.3mb 79f
5:12  -  mph 1012.3mb 80f
5:06  -  mph 1012.3mb 80f
5:00 8 10 mph 1012.3mb 81f
4:54 7 8 mph 1012.4mb 81f
4:48 7 9 mph - 81f
4:42 6 7 mph - 83f
4:36 6 7 mph - 83f
4:30 6 7 mph 1012.6mb 83f
4:24 6 8 mph 1012.6mb 83f
4:18  -  mph 1012.7mb 81f
4:12  -  mph 1012.8mb 81f
4:06  -  mph 1012.9mb 81f
4:00 1 2 mph 1013mb 79f
3:54 5 8 mph 1013mb 78f
3:48 8 10 mph 1013.1mb 78f
3:42 9 10 mph 1013mb 77f
3:36 8 10 mph 1013.1mb 77f
3:30 8 10 mph 1013.1mb 76f
3:24 10 11 mph 1013.1mb 76f
3:18  -  mph 1013.1mb 75f
3:12  -  mph 1013.2mb 76f
3:06  -  mph 1013.3mb 77f
3:00  -  mph 1013.3mb 78f
2:54  -  mph 1013.5mb 78f
2:48  -  mph - 78f
2:42  -  mph - 77f
2:36  -  mph - 76f
2:30 13 14 mph 1013.8mb 75f
2:24 14 15 mph 1013.8mb 75f
2:18 14 15 mph 1013.8mb 75f
2:12 15 16 mph 1013.9mb 75f
2:06 13 14 mph 1014mb 76f
2:00 13 15 mph 1014.1mb 75f
1:54 14 15 mph 1014.2mb 75f
1:48 14 15 mph 1014.2mb 74f
1:42 14 16 mph 1014.3mb 74f
1:36 15 16 mph 1014.3mb 74f
1:30 15 16 mph 1014.3mb 74f
1:24 15 17 mph 1014.3mb 74f
1:18 15 16 mph 1014.3mb 74f
1:12 15 16 mph 1014.4mb 74f
1:06 16 17 mph 1014.5mb 73f
1:00 15 16 mph 1014.5mb 73f
12:54 15 16 mph 1014.5mb 73f
12:48 15 16 mph 1014.6mb 74f
12:42 14 15 mph 1014.7mb 74f
12:36 13 14 mph 1014.8mb 74f
12:30 14 15 mph 1014.8mb 73f
12:24 14 15 mph 1014.9mb 73f
12:18 14 15 mph 1015mb 72f
12:12 14 16 mph 1015mb 72f
12:06 15 16 mph 1015.1mb 72f
12:00 15 16 mph 1015.2mb 72f
11:54 16 17 mph 1015.3mb 72f
11:48 16 17 mph 1015.3mb 71f
11:42 15 16 mph 1015.4mb 72f
11:36 14 15 mph 1015.5mb 72f
11:30 14 15 mph 1015.6mb 72f
11:24 13 14 mph 1015.6mb 71f
11:18 11 14 mph 1015.6mb 71f
11:12 11 13 mph 1015.6mb 71f
11:06 11 13 mph 1015.6mb 71f
11:00 11
mph
1015.7mb 71f
10:54 10 11 mph 1015.8mb 71f
10:48 10 11 mph 1015.9mb 71f
10:42 10 11 mph 1016mb 69f
10:36 10 11 mph 1016mb 69f
10:30 9 10 mph 1016mb 68f
10:24 8 9 mph 1015.8mb 68f
10:18 8 9 mph 1015.8mb 68f
10:12 7 9 mph 1015.9mb 68f
10:06 7 8 mph 1015.9mb 68f
10:00 6 8 mph 1015.8mb 68f
9:54 6 7 mph 1015.8mb 68f
9:48 6 7 mph 1015.8mb 69f
9:42 5 6 mph 1016mb 70f
9:36 5
mph
1015.8mb 69f
9:30 3 5 mph 1015.9mb 70f
9:24 3 5 mph 1015.9mb 70f
9:18 3 5 mph 1015.8mb 71f
9:12 3
mph
1016mb 71f
9:06 2 5 mph 1015.9mb 70f
9:00 2 3 mph 1015.8mb 71f
8:54 2
mph
1015.8mb 71f
8:48 1 2 mph 1015.8mb 72f
8:42 2
mph
1015.9mb 72f
8:36 2
mph
1015.9mb 71f
8:30 1
mph
1015.8mb 71f
8:24  -  1 mph 1015.8mb 70f
8:18 1
mph
1015.8mb 70f
8:12  -  1 mph 1015.8mb 69f
8:06  -  1 mph 1015.8mb 68f
8:00  -  1 mph 1015.8mb 68f
7:54  -  2 mph 1015.8mb 68f
7:48  -  2 mph 1015.8mb 68f
7:42  -  1 mph - 68f
7:36  -  1 mph - 67f
7:30  -  mph - 67f
7:24  -  mph 1015.6mb 66f
7:18  -  mph 1015.6mb 66f
7:12  -  1 mph 1015.5mb 65f
7:06  -  1 mph 1015.5mb 65f
7:00  -  2 mph 1015.5mb 65f
6:54 2
mph
1015.5mb 65f
6:48  -  1 mph 1015.4mb 64f
6:42 2
mph
1015.3mb 64f
6:36 1 2 mph 1015.3mb 64f
6:30 1 2 mph 1015.3mb 64f
6:24 1 2 mph 1015.3mb 65f
6:18 1 2 mph 1015.2mb 65f
6:12 2
mph
1015.2mb 65f
6:06 2 3 mph 1015.1mb 65f
6:00  -  2 mph 1015mb 64f
5:54  -  mph 1015mb 64f
5:48  -  mph 1014.9mb 64f
5:42  -  mph 1014.8mb 65f
5:36 1 2 mph 1014.7mb 65f
5:30 1 2 mph 1014.7mb 65f
5:24 2
mph
1014.7mb 65f
5:18 1 2 mph 1014.7mb 65f
5:12 1 2 mph 1014.7mb 65f
5:06 1 2 mph 1014.6mb 65f
5:00 2 3 mph 1014.7mb -
4:54 3
mph
1014.7mb -
4:48 3 5 mph 1014.7mb 66f
4:42 3 5 mph 1014.7mb 66f
4:36 3 5 mph 1014.7mb 65f
4:24 3 5 mph 1014.7mb 65f
4:18 3 5 mph 1014.7mb 65f
4:12 3
mph
1014.7mb 65f
4:06 3
mph
1014.7mb 65f
4:00 2
mph
1014.7mb 65f
3:54 2
mph
1014.7mb 65f
3:48 1 2 mph 1014.7mb 65f
3:42  -  1 mph 1014.7mb 65f
3:36  -  mph 1014.6mb 64f
3:30  -  1 mph 1014.6mb 65f
3:24  -  2 mph 1014.7mb 64f
3:18 1 2 mph 1014.7mb 64f
3:12 2
mph
1014.7mb 65f
3:06 2 3 mph 1014.7mb 65f
3:00 1 2 mph 1014.7mb 64f
2:54  -  1 mph 1014.7mb 65f
2:48  -  mph 1014.7mb 65f
2:42  -  1 mph 1014.8mb 65f
2:36  -  1 mph 1014.8mb 64f
2:30  -  2 mph 1014.8mb 65f
2:24  -  2 mph 1014.8mb 65f
2:18  -  mph 1014.7mb 65f
2:12  -  mph 1014.7mb 65f
2:06  -  1 mph 1014.7mb 65f
2:00  -  1 mph 1014.7mb 65f
1:54 1 2 mph 1014.7mb 65f
1:48 2 3 mph 1014.8mb 65f
1:42 2 3 mph 1014.8mb 66f
1:36 3
mph
1014.9mb 65f
1:30 2
mph
1014.9mb 65f
1:24 2
mph
1014.9mb 65f
1:18 2 3 mph 1015mb 65f
1:12 2
mph
1015mb 65f
1:06 2 3 mph 1015mb 65f
1:00 2 5 mph 1015mb 65f
12:54 3 5 mph 1015mb 65f
12:48 2 5 mph 1015.1mb 66f
12:42 3 5 mph 1015.1mb 66f
12:36 5
mph
1015mb 66f
12:30 5
mph
1015.1mb 66f
12:24 3 5 mph 1015mb 66f
12:18 3
mph
1015mb 66f
12:12 3 5 mph 1014.9mb 65f
12:06 3
mph
1014.8mb 65f
12:00 3
mph
1014.7mb 66f
Sáb 08/27 11:54 3 5 mph 1014.8mb 66f
11:48 3
mph
1014.8mb 66f
11:42 2 3 mph 1014.8mb 66f
11:36 2
mph
1014.7mb 66f
11:30 3
mph
1014.7mb 66f
11:24 3
mph
1014.7mb 66f
11:18 2 3 mph 1014.7mb 66f
11:12 1 2 mph 1014.7mb 66f
11:06  -  1 mph 1014.7mb 66f
11:00 1
mph
1014.7mb 66f
10:54 2
mph
1014.7mb 66f
10:48 2 3 mph 1014.7mb -
10:42 3
mph
1014.7mb -
10:36 1 3 mph 1014.7mb -
10:30  -  1 mph 1014.6mb 66f
10:24 1 2 mph 1014.5mb 66f
10:18  -  1 mph 1014.5mb 67f
10:12  -  1 mph 1014.5mb 67f
10:06 2 3 mph 1014.4mb 67f
10:00 2 3 mph 1014.3mb 67f
9:54 2 3 mph 1014.3mb 67f